sensor_id;sensor_type;location;lat;lon;timestamp;pressure;altitude;pressure_sealevel;temperature;humidity
71145;BME280;58812;47.698;17.726;2022-08-19T00:01:15;99669.28;;;23.69;55.24
71145;BME280;58812;47.698;17.726;2022-08-19T00:03:41;99674.19;;;23.67;55.49
71145;BME280;58812;47.698;17.726;2022-08-19T00:06:06;99670.12;;;23.70;55.56
71145;BME280;58812;47.698;17.726;2022-08-19T00:08:32;99667.06;;;23.66;55.75
71145;BME280;58812;47.698;17.726;2022-08-19T00:10:57;99665.28;;;23.60;56.05
71145;BME280;58812;47.698;17.726;2022-08-19T00:13:22;99658.66;;;23.56;56.70
71145;BME280;58812;47.698;17.726;2022-08-19T00:15:48;99661.62;;;23.55;56.53
71145;BME280;58812;47.698;17.726;2022-08-19T00:18:13;99656.91;;;23.50;56.83
71145;BME280;58812;47.698;17.726;2022-08-19T00:20:38;99655.31;;;23.37;57.60
71145;BME280;58812;47.698;17.726;2022-08-19T00:23:05;99653.38;;;23.21;59.37
71145;BME280;58812;47.698;17.726;2022-08-19T00:25:31;99650.63;;;23.21;58.89
71145;BME280;58812;47.698;17.726;2022-08-19T00:27:57;99633.75;;;23.24;58.27
71145;BME280;58812;47.698;17.726;2022-08-19T00:30:24;99634.34;;;23.26;57.92
71145;BME280;58812;47.698;17.726;2022-08-19T00:32:50;99636.19;;;23.09;58.77
71145;BME280;58812;47.698;17.726;2022-08-19T00:35:15;99621.97;;;23.07;58.90
71145;BME280;58812;47.698;17.726;2022-08-19T00:37:41;99625.28;;;23.09;59.45
71145;BME280;58812;47.698;17.726;2022-08-19T00:40:10;99616.38;;;23.13;58.67
71145;BME280;58812;47.698;17.726;2022-08-19T00:42:35;99608.50;;;23.17;58.33
71145;BME280;58812;47.698;17.726;2022-08-19T00:45:01;99608.06;;;23.08;58.54
71145;BME280;58812;47.698;17.726;2022-08-19T00:47:27;99610.13;;;23.01;58.98
71145;BME280;58812;47.698;17.726;2022-08-19T00:49:56;99609.63;;;23.04;58.93
71145;BME280;58812;47.698;17.726;2022-08-19T00:52:29;99612.25;;;22.99;59.14
71145;BME280;58812;47.698;17.726;2022-08-19T00:54:57;99606.69;;;22.94;59.07
71145;BME280;58812;47.698;17.726;2022-08-19T00:57:46;99608.38;;;22.95;59.25
71145;BME280;58812;47.698;17.726;2022-08-19T01:00:17;99605.13;;;22.98;59.71
71145;BME280;58812;47.698;17.726;2022-08-19T01:02:43;99595.56;;;22.96;59.51
71145;BME280;58812;47.698;17.726;2022-08-19T01:05:14;99593.28;;;22.92;59.35
71145;BME280;58812;47.698;17.726;2022-08-19T01:07:40;99594.63;;;22.90;59.51
71145;BME280;58812;47.698;17.726;2022-08-19T01:10:09;99582.63;;;22.91;59.23
71145;BME280;58812;47.698;17.726;2022-08-19T01:12:37;99587.00;;;22.92;59.53
71145;BME280;58812;47.698;17.726;2022-08-19T01:15:07;99581.06;;;22.95;59.24
71145;BME280;58812;47.698;17.726;2022-08-19T01:17:36;99584.84;;;22.94;59.45
71145;BME280;58812;47.698;17.726;2022-08-19T01:20:04;99581.56;;;22.92;59.56
71145;BME280;58812;47.698;17.726;2022-08-19T01:22:38;99576.00;;;22.87;59.87
71145;BME280;58812;47.698;17.726;2022-08-19T01:25:07;99578.59;;;22.82;60.47
71145;BME280;58812;47.698;17.726;2022-08-19T01:27:42;99580.16;;;22.78;60.12
71145;BME280;58812;47.698;17.726;2022-08-19T01:30:11;99584.91;;;22.71;61.07
71145;BME280;58812;47.698;17.726;2022-08-19T01:32:37;99574.84;;;22.71;60.32
71145;BME280;58812;47.698;17.726;2022-08-19T01:35:04;99574.00;;;22.71;60.49
71145;BME280;58812;47.698;17.726;2022-08-19T01:37:40;99578.88;;;22.69;60.55
71145;BME280;58812;47.698;17.726;2022-08-19T01:40:07;99569.03;;;22.67;60.71
71145;BME280;58812;47.698;17.726;2022-08-19T01:42:33;99572.84;;;22.66;60.63
71145;BME280;58812;47.698;17.726;2022-08-19T01:45:00;99570.59;;;22.63;60.82
71145;BME280;58812;47.698;17.726;2022-08-19T01:47:25;99563.88;;;22.54;61.41
71145;BME280;58812;47.698;17.726;2022-08-19T01:49:51;99566.50;;;22.49;61.64
71145;BME280;58812;47.698;17.726;2022-08-19T01:52:16;99575.13;;;22.46;61.58
71145;BME280;58812;47.698;17.726;2022-08-19T01:54:41;99577.88;;;22.46;61.43
71145;BME280;58812;47.698;17.726;2022-08-19T01:57:10;99571.25;;;22.42;61.73
71145;BME280;58812;47.698;17.726;2022-08-19T01:59:37;99572.44;;;22.34;62.09
71145;BME280;58812;47.698;17.726;2022-08-19T02:02:04;99577.31;;;22.32;61.97
71145;BME280;58812;47.698;17.726;2022-08-19T02:04:32;99575.31;;;22.28;62.32
71145;BME280;58812;47.698;17.726;2022-08-19T02:06:58;99581.81;;;22.27;62.34
71145;BME280;58812;47.698;17.726;2022-08-19T02:09:23;99591.31;;;22.24;62.52
71145;BME280;58812;47.698;17.726;2022-08-19T02:11:48;99590.72;;;22.22;62.55
71145;BME280;58812;47.698;17.726;2022-08-19T02:14:14;99584.31;;;22.17;63.01
71145;BME280;58812;47.698;17.726;2022-08-19T02:16:40;99580.66;;;22.11;63.35
71145;BME280;58812;47.698;17.726;2022-08-19T02:19:05;99589.53;;;22.06;64.17
71145;BME280;58812;47.698;17.726;2022-08-19T02:21:31;99578.03;;;22.04;63.74
71145;BME280;58812;47.698;17.726;2022-08-19T02:23:57;99589.16;;;22.03;63.66
71145;BME280;58812;47.698;17.726;2022-08-19T02:26:23;99587.16;;;21.98;64.08
71145;BME280;58812;47.698;17.726;2022-08-19T02:28:48;99593.09;;;21.95;64.04
71145;BME280;58812;47.698;17.726;2022-08-19T02:31:17;99584.09;;;21.95;64.09
71145;BME280;58812;47.698;17.726;2022-08-19T02:33:44;99580.53;;;21.94;64.40
71145;BME280;58812;47.698;17.726;2022-08-19T02:36:10;99579.09;;;21.92;64.33
71145;BME280;58812;47.698;17.726;2022-08-19T02:38:36;99573.06;;;21.90;64.40
71145;BME280;58812;47.698;17.726;2022-08-19T02:41:11;99578.97;;;21.86;64.55
71145;BME280;58812;47.698;17.726;2022-08-19T02:43:37;99579.22;;;21.85;64.62
71145;BME280;58812;47.698;17.726;2022-08-19T02:46:21;99578.97;;;21.86;64.42
71145;BME280;58812;47.698;17.726;2022-08-19T02:48:52;99585.25;;;21.87;64.86
71145;BME280;58812;47.698;17.726;2022-08-19T02:51:29;99587.16;;;21.86;64.48
71145;BME280;58812;47.698;17.726;2022-08-19T02:53:55;99593.56;;;21.80;65.52
71145;BME280;58812;47.698;17.726;2022-08-19T02:56:22;99599.13;;;21.74;65.34
71145;BME280;58812;47.698;17.726;2022-08-19T02:58:49;99597.59;;;21.78;64.89
71145;BME280;58812;47.698;17.726;2022-08-19T03:01:30;99592.13;;;21.78;65.28
71145;BME280;58812;47.698;17.726;2022-08-19T03:03:57;99586.44;;;21.79;65.52
71145;BME280;58812;47.698;17.726;2022-08-19T03:06:24;99581.69;;;21.75;65.61
71145;BME280;58812;47.698;17.726;2022-08-19T03:08:50;99592.59;;;21.75;65.09
71145;BME280;58812;47.698;17.726;2022-08-19T03:11:28;99601.72;;;21.69;65.59
71145;BME280;58812;47.698;17.726;2022-08-19T03:13:55;99599.00;;;21.69;66.02
71145;BME280;58812;47.698;17.726;2022-08-19T03:16:23;99589.97;;;21.68;65.69
71145;BME280;58812;47.698;17.726;2022-08-19T03:18:50;99586.19;;;21.57;66.23
71145;BME280;58812;47.698;17.726;2022-08-19T03:21:26;99589.53;;;21.59;66.04
71145;BME280;58812;47.698;17.726;2022-08-19T03:23:59;99605.88;;;21.59;66.35
71145;BME280;58812;47.698;17.726;2022-08-19T03:26:25;99595.41;;;21.56;67.27
71145;BME280;58812;47.698;17.726;2022-08-19T03:28:50;99592.94;;;21.55;66.30
71145;BME280;58812;47.698;17.726;2022-08-19T03:31:18;99595.91;;;21.53;66.11
71145;BME280;58812;47.698;17.726;2022-08-19T03:33:45;99586.91;;;21.53;66.02
71145;BME280;58812;47.698;17.726;2022-08-19T03:36:18;99601.94;;;21.55;65.79
71145;BME280;58812;47.698;17.726;2022-08-19T03:38:49;99583.25;;;21.59;65.68
71145;BME280;58812;47.698;17.726;2022-08-19T03:41:20;99592.44;;;21.58;65.79
71145;BME280;58812;47.698;17.726;2022-08-19T03:43:47;99589.53;;;21.59;65.67
71145;BME280;58812;47.698;17.726;2022-08-19T03:46:15;99592.00;;;21.61;65.46
71145;BME280;58812;47.698;17.726;2022-08-19T03:48:42;99590.94;;;21.62;65.62
71145;BME280;58812;47.698;17.726;2022-08-19T03:51:16;99586.56;;;21.61;65.62
71145;BME280;58812;47.698;17.726;2022-08-19T03:53:42;99588.69;;;21.59;65.96
71145;BME280;58812;47.698;17.726;2022-08-19T03:56:09;99593.31;;;21.58;65.48
71145;BME280;58812;47.698;17.726;2022-08-19T03:58:35;99592.25;;;21.59;65.30
71145;BME280;58812;47.698;17.726;2022-08-19T04:01:07;99585.59;;;21.55;65.20
71145;BME280;58812;47.698;17.726;2022-08-19T04:03:33;99578.75;;;21.53;65.19
71145;BME280;58812;47.698;17.726;2022-08-19T04:06:19;99577.91;;;21.52;65.12
71145;BME280;58812;47.698;17.726;2022-08-19T04:08:47;99583.94;;;21.54;64.99
71145;BME280;58812;47.698;17.726;2022-08-19T04:11:16;99579.91;;;21.57;64.78
71145;BME280;58812;47.698;17.726;2022-08-19T04:13:42;99587.63;;;21.60;64.65
71145;BME280;58812;47.698;17.726;2022-08-19T04:16:10;99590.69;;;21.64;64.55
71145;BME280;58812;47.698;17.726;2022-08-19T04:18:36;99593.53;;;21.69;64.56
71145;BME280;58812;47.698;17.726;2022-08-19T04:21:03;99595.81;;;21.72;65.16
71145;BME280;58812;47.698;17.726;2022-08-19T04:23:29;99590.13;;;21.73;64.85
71145;BME280;58812;47.698;17.726;2022-08-19T04:25:55;99592.97;;;21.78;64.54
71145;BME280;58812;47.698;17.726;2022-08-19T04:28:21;99591.66;;;21.81;64.50
71145;BME280;58812;47.698;17.726;2022-08-19T04:30:48;99591.78;;;21.86;64.46
71145;BME280;58812;47.698;17.726;2022-08-19T04:33:16;99591.44;;;21.94;64.26
71145;BME280;58812;47.698;17.726;2022-08-19T04:35:45;99596.16;;;21.99;63.92
71145;BME280;58812;47.698;17.726;2022-08-19T04:38:12;99606.72;;;22.07;64.13
71145;BME280;58812;47.698;17.726;2022-08-19T04:40:42;99595.72;;;22.13;64.12
71145;BME280;58812;47.698;17.726;2022-08-19T04:43:27;99595.59;;;22.20;64.52
71145;BME280;58812;47.698;17.726;2022-08-19T04:45:53;99607.06;;;22.34;63.46
71145;BME280;58812;47.698;17.726;2022-08-19T04:48:19;99613.31;;;22.46;63.08
71145;BME280;58812;47.698;17.726;2022-08-19T04:50:50;99609.16;;;22.55;62.90
71145;BME280;58812;47.698;17.726;2022-08-19T04:53:30;99614.09;;;22.70;62.65
71145;BME280;58812;47.698;17.726;2022-08-19T04:55:57;99611.34;;;22.82;62.38
71145;BME280;58812;47.698;17.726;2022-08-19T04:58:24;99610.50;;;22.93;62.26
71145;BME280;58812;47.698;17.726;2022-08-19T05:00:50;99609.38;;;23.06;61.71
71145;BME280;58812;47.698;17.726;2022-08-19T05:03:16;99600.47;;;23.10;61.46
71145;BME280;58812;47.698;17.726;2022-08-19T05:05:43;99610.91;;;23.30;61.03
71145;BME280;58812;47.698;17.726;2022-08-19T05:08:10;99605.63;;;23.40;61.03
71145;BME280;58812;47.698;17.726;2022-08-19T05:10:37;99606.41;;;23.53;60.34
71145;BME280;58812;47.698;17.726;2022-08-19T05:13:03;99601.53;;;23.71;59.89
71145;BME280;58812;47.698;17.726;2022-08-19T05:15:29;99610.00;;;23.87;59.29
71145;BME280;58812;47.698;17.726;2022-08-19T05:17:55;99609.47;;;24.07;58.60
71145;BME280;58812;47.698;17.726;2022-08-19T05:20:46;99617.09;;;24.21;58.17
71145;BME280;58812;47.698;17.726;2022-08-19T05:23:30;99611.09;;;24.41;57.65
71145;BME280;58812;47.698;17.726;2022-08-19T05:25:55;99603.78;;;24.69;56.95
71145;BME280;58812;47.698;17.726;2022-08-19T05:28:21;99605.25;;;24.76;56.65
71145;BME280;58812;47.698;17.726;2022-08-19T05:30:46;99608.22;;;24.97;55.86
71145;BME280;58812;47.698;17.726;2022-08-19T05:33:13;99607.38;;;25.18;55.35
71145;BME280;58812;47.698;17.726;2022-08-19T05:35:39;99606.53;;;25.45;55.16
71145;BME280;58812;47.698;17.726;2022-08-19T05:38:07;99605.06;;;25.64;54.29
71145;BME280;58812;47.698;17.726;2022-08-19T05:40:37;99617.31;;;25.83;53.74
71145;BME280;58812;47.698;17.726;2022-08-19T05:43:05;99617.38;;;25.94;52.83
71145;BME280;58812;47.698;17.726;2022-08-19T05:45:31;99605.31;;;25.95;52.73
71145;BME280;58812;47.698;17.726;2022-08-19T05:47:57;99600.47;;;26.07;52.47
71145;BME280;58812;47.698;17.726;2022-08-19T05:50:24;99593.94;;;26.18;52.43
71145;BME280;58812;47.698;17.726;2022-08-19T05:52:50;99589.56;;;26.17;52.14
71145;BME280;58812;47.698;17.726;2022-08-19T05:55:16;99590.22;;;26.34;50.98
71145;BME280;58812;47.698;17.726;2022-08-19T05:57:41;99598.06;;;26.63;50.59
71145;BME280;58812;47.698;17.726;2022-08-19T06:00:07;99606.91;;;26.75;49.35
71145;BME280;58812;47.698;17.726;2022-08-19T06:02:35;99621.81;;;27.05;48.89
71145;BME280;58812;47.698;17.726;2022-08-19T06:05:03;99635.91;;;27.24;48.50
71145;BME280;58812;47.698;17.726;2022-08-19T06:07:28;99653.88;;;27.72;47.17
71145;BME280;58812;47.698;17.726;2022-08-19T06:09:55;99668.41;;;27.52;47.07
71145;BME280;58812;47.698;17.726;2022-08-19T06:12:20;99664.03;;;28.38;45.80
71145;BME280;58812;47.698;17.726;2022-08-19T06:14:55;99661.97;;;28.84;44.73
71145;BME280;58812;47.698;17.726;2022-08-19T06:17:21;99668.00;;;28.91;43.64
71145;BME280;58812;47.698;17.726;2022-08-19T06:19:50;99657.47;;;29.09;43.51
71145;BME280;58812;47.698;17.726;2022-08-19T06:22:15;99660.28;;;28.98;42.47
71145;BME280;58812;47.698;17.726;2022-08-19T06:24:41;99658.53;;;29.18;42.59
71145;BME280;58812;47.698;17.726;2022-08-19T06:27:07;99667.38;;;29.10;42.67
71145;BME280;58812;47.698;17.726;2022-08-19T06:29:32;99664.06;;;29.18;42.52
71145;BME280;58812;47.698;17.726;2022-08-19T06:31:59;99666.75;;;29.23;42.62
71145;BME280;58812;47.698;17.726;2022-08-19T06:34:27;99671.69;;;29.31;42.42
71145;BME280;58812;47.698;17.726;2022-08-19T06:36:54;99676.81;;;28.98;42.22
71145;BME280;58812;47.698;17.726;2022-08-19T06:39:25;99680.91;;;29.61;41.62
71145;BME280;58812;47.698;17.726;2022-08-19T06:41:54;99686.84;;;29.78;41.00
71145;BME280;58812;47.698;17.726;2022-08-19T06:44:23;99676.28;;;29.90;41.18
71145;BME280;58812;47.698;17.726;2022-08-19T06:46:49;99689.69;;;30.02;40.55
71145;BME280;58812;47.698;17.726;2022-08-19T06:49:17;99685.00;;;30.02;40.66
71145;BME280;58812;47.698;17.726;2022-08-19T06:51:45;99681.19;;;29.93;41.16
71145;BME280;58812;47.698;17.726;2022-08-19T06:54:13;99676.56;;;29.89;40.63
71145;BME280;58812;47.698;17.726;2022-08-19T06:56:39;99687.16;;;30.11;40.69
71145;BME280;58812;47.698;17.726;2022-08-19T06:59:12;99699.75;;;30.80;39.51
71145;BME280;58812;47.698;17.726;2022-08-19T07:01:43;99705.31;;;30.99;39.36
71145;BME280;58812;47.698;17.726;2022-08-19T07:04:11;99705.22;;;30.85;38.88
71145;BME280;58812;47.698;17.726;2022-08-19T07:06:36;99707.34;;;31.36;37.98
71145;BME280;58812;47.698;17.726;2022-08-19T07:09:04;99707.28;;;31.41;37.93
71145;BME280;58812;47.698;17.726;2022-08-19T07:11:30;99706.38;;;31.64;37.92
71145;BME280;58812;47.698;17.726;2022-08-19T07:13:56;99700.62;;;31.42;37.62
71145;BME280;58812;47.698;17.726;2022-08-19T07:16:21;99713.03;;;31.63;37.22
71145;BME280;58812;47.698;17.726;2022-08-19T07:18:48;99703.69;;;31.59;36.51
71145;BME280;58812;47.698;17.726;2022-08-19T07:21:17;99707.56;;;31.77;36.19
71145;BME280;58812;47.698;17.726;2022-08-19T07:23:44;99712.06;;;31.35;37.08
71145;BME280;58812;47.698;17.726;2022-08-19T07:26:25;99716.09;;;32.00;36.10
71145;BME280;58812;47.698;17.726;2022-08-19T07:28:52;99710.13;;;31.93;35.42
71145;BME280;58812;47.698;17.726;2022-08-19T07:31:20;99717.28;;;32.12;35.52
71145;BME280;58812;47.698;17.726;2022-08-19T07:33:48;99715.12;;;31.34;36.86
71145;BME280;58812;47.698;17.726;2022-08-19T07:36:16;99710.34;;;31.58;35.58
71145;BME280;58812;47.698;17.726;2022-08-19T07:38:44;99715.94;;;32.10;35.66
71145;BME280;58812;47.698;17.726;2022-08-19T07:41:13;99715.94;;;31.10;37.00
71145;BME280;58812;47.698;17.726;2022-08-19T07:43:39;99702.19;;;31.05;36.54
71145;BME280;58812;47.698;17.726;2022-08-19T07:46:05;99701.25;;;31.15;36.60
71145;BME280;58812;47.698;17.726;2022-08-19T07:48:31;99702.13;;;31.53;35.96
71145;BME280;58812;47.698;17.726;2022-08-19T07:50:59;99711.47;;;31.76;35.41
71145;BME280;58812;47.698;17.726;2022-08-19T07:53:28;99703.09;;;31.62;35.74
71145;BME280;58812;47.698;17.726;2022-08-19T07:55:53;99702.41;;;32.08;35.02
71145;BME280;58812;47.698;17.726;2022-08-19T07:58:21;99707.22;;;31.46;35.65
71145;BME280;58812;47.698;17.726;2022-08-19T08:00:48;99707.81;;;31.62;35.64
71145;BME280;58812;47.698;17.726;2022-08-19T08:03:16;99704.37;;;31.51;35.28
71145;BME280;58812;47.698;17.726;2022-08-19T08:05:42;99704.78;;;32.15;34.17
71145;BME280;58812;47.698;17.726;2022-08-19T08:08:26;99700.69;;;33.28;32.42
71145;BME280;58812;47.698;17.726;2022-08-19T08:11:12;99690.00;;;33.35;32.15
71145;BME280;58812;47.698;17.726;2022-08-19T08:13:37;99693.59;;;32.66;33.16
71145;BME280;58812;47.698;17.726;2022-08-19T08:16:04;99689.06;;;33.26;31.73
71145;BME280;58812;47.698;17.726;2022-08-19T08:18:29;99691.28;;;33.65;30.96
71145;BME280;58812;47.698;17.726;2022-08-19T08:20:55;99677.56;;;33.91;30.63
71145;BME280;58812;47.698;17.726;2022-08-19T08:23:22;99687.03;;;32.62;32.47
71145;BME280;58812;47.698;17.726;2022-08-19T08:25:48;99682.34;;;33.04;31.96
71145;BME280;58812;47.698;17.726;2022-08-19T08:28:14;99680.94;;;33.57;31.56
71145;BME280;58812;47.698;17.726;2022-08-19T08:30:40;99687.41;;;33.38;31.73
71145;BME280;58812;47.698;17.726;2022-08-19T08:33:08;99679.53;;;34.04;30.23
71145;BME280;58812;47.698;17.726;2022-08-19T08:35:34;99681.19;;;32.64;32.66
71145;BME280;58812;47.698;17.726;2022-08-19T08:38:00;99680.56;;;33.08;32.16
71145;BME280;58812;47.698;17.726;2022-08-19T08:40:42;99681.00;;;32.28;33.26
71145;BME280;58812;47.698;17.726;2022-08-19T08:43:22;99669.69;;;32.84;32.26
71145;BME280;58812;47.698;17.726;2022-08-19T08:48:34;99679.75;;;32.53;32.99
71145;BME280;58812;47.698;17.726;2022-08-19T08:51:05;99691.56;;;32.26;33.55
71145;BME280;58812;47.698;17.726;2022-08-19T08:53:34;99692.44;;;32.40;33.62
71145;BME280;58812;47.698;17.726;2022-08-19T08:56:03;99688.69;;;32.31;33.83
71145;BME280;58812;47.698;17.726;2022-08-19T09:01:17;99688.94;;;32.34;33.49
71145;BME280;58812;47.698;17.726;2022-08-19T09:03:44;99691.94;;;32.19;34.11
71145;BME280;58812;47.698;17.726;2022-08-19T09:06:22;99685.72;;;31.76;34.14
71145;BME280;58812;47.698;17.726;2022-08-19T09:12:08;99683.41;;;31.64;35.29
71145;BME280;58812;47.698;17.726;2022-08-19T09:14:52;99682.91;;;31.62;35.08
71145;BME280;58812;47.698;17.726;2022-08-19T09:17:24;99677.88;;;31.83;34.91
71145;BME280;58812;47.698;17.726;2022-08-19T09:22:40;99670.12;;;32.31;34.28
71145;BME280;58812;47.698;17.726;2022-08-19T09:25:10;99673.41;;;32.80;32.87
71145;BME280;58812;47.698;17.726;2022-08-19T09:27:38;99668.81;;;33.39;32.18
71145;BME280;58812;47.698;17.726;2022-08-19T09:30:05;99668.38;;;33.59;31.97
71145;BME280;58812;47.698;17.726;2022-08-19T09:32:30;99663.31;;;33.84;31.82
71145;BME280;58812;47.698;17.726;2022-08-19T09:34:56;99669.47;;;34.88;29.62
71145;BME280;58812;47.698;17.726;2022-08-19T09:37:23;99670.44;;;35.49;28.93
71145;BME280;58812;47.698;17.726;2022-08-19T09:39:49;99667.00;;;33.70;30.71
71145;BME280;58812;47.698;17.726;2022-08-19T09:42:15;99664.22;;;33.70;31.36
71145;BME280;58812;47.698;17.726;2022-08-19T09:44:41;99667.47;;;33.50;31.70
71145;BME280;58812;47.698;17.726;2022-08-19T09:47:08;99669.25;;;34.13;30.66
71145;BME280;58812;47.698;17.726;2022-08-19T09:49:34;99663.13;;;34.25;30.40
71145;BME280;58812;47.698;17.726;2022-08-19T09:52:00;99660.22;;;34.30;30.16
71145;BME280;58812;47.698;17.726;2022-08-19T09:54:26;99656.25;;;34.53;30.63
71145;BME280;58812;47.698;17.726;2022-08-19T09:56:53;99662.22;;;35.26;29.30
71145;BME280;58812;47.698;17.726;2022-08-19T09:59:18;99651.78;;;34.84;29.11
71145;BME280;58812;47.698;17.726;2022-08-19T10:01:44;99646.06;;;34.89;29.15
71145;BME280;58812;47.698;17.726;2022-08-19T10:04:09;99647.38;;;34.91;28.56
71145;BME280;58812;47.698;17.726;2022-08-19T10:06:37;99638.91;;;34.96;29.28
71145;BME280;58812;47.698;17.726;2022-08-19T10:09:04;99641.94;;;35.69;27.79
71145;BME280;58812;47.698;17.726;2022-08-19T10:11:32;99649.25;;;36.17;26.85
71145;BME280;58812;47.698;17.726;2022-08-19T10:13:57;99644.53;;;36.09;27.23
71145;BME280;58812;47.698;17.726;2022-08-19T10:16:23;99643.37;;;35.23;27.51
71145;BME280;58812;47.698;17.726;2022-08-19T10:18:50;99643.19;;;34.63;28.80
71145;BME280;58812;47.698;17.726;2022-08-19T10:21:17;99651.28;;;34.11;29.35
71145;BME280;58812;47.698;17.726;2022-08-19T10:23:45;99646.81;;;34.32;29.58
71145;BME280;58812;47.698;17.726;2022-08-19T10:26:14;99642.75;;;34.38;29.23
71145;BME280;58812;47.698;17.726;2022-08-19T10:28:40;99655.09;;;34.46;29.11
71145;BME280;58812;47.698;17.726;2022-08-19T10:31:08;99648.28;;;34.30;29.82
71145;BME280;58812;47.698;17.726;2022-08-19T10:33:35;99669.22;;;34.05;29.74
71145;BME280;58812;47.698;17.726;2022-08-19T10:36:04;99666.06;;;33.75;29.99
71145;BME280;58812;47.698;17.726;2022-08-19T10:38:30;99669.69;;;33.98;30.15
71145;BME280;58812;47.698;17.726;2022-08-19T10:40:56;99681.59;;;33.40;32.98
71145;BME280;58812;47.698;17.726;2022-08-19T10:43:22;99690.00;;;33.35;33.76
71145;BME280;58812;47.698;17.726;2022-08-19T10:45:54;99700.78;;;33.36;34.10
71145;BME280;58812;47.698;17.726;2022-08-19T10:48:24;99706.28;;;32.07;37.50
71145;BME280;58812;47.698;17.726;2022-08-19T10:50:49;99700.38;;;32.14;37.55
71145;BME280;58812;47.698;17.726;2022-08-19T10:53:34;99703.34;;;31.85;37.94
71145;BME280;58812;47.698;17.726;2022-08-19T10:55:59;99702.19;;;31.48;38.96
71145;BME280;58812;47.698;17.726;2022-08-19T10:58:43;99703.03;;;31.68;38.48
71145;BME280;58812;47.698;17.726;2022-08-19T11:01:09;99704.53;;;31.79;38.62
71145;BME280;58812;47.698;17.726;2022-08-19T11:03:35;99700.62;;;31.42;38.74
71145;BME280;58812;47.698;17.726;2022-08-19T11:06:03;99714.38;;;31.47;39.10
71145;BME280;58812;47.698;17.726;2022-08-19T11:08:29;99698.94;;;31.22;39.59
71145;BME280;58812;47.698;17.726;2022-08-19T11:10:59;99703.81;;;31.06;39.78
71145;BME280;58812;47.698;17.726;2022-08-19T11:13:38;99707.84;;;30.95;39.69
71145;BME280;58812;47.698;17.726;2022-08-19T11:16:15;99702.50;;;30.80;39.88
71145;BME280;58812;47.698;17.726;2022-08-19T11:18:46;99705.69;;;30.92;39.79
71145;BME280;58812;47.698;17.726;2022-08-19T11:21:20;99711.56;;;30.56;40.24
71145;BME280;58812;47.698;17.726;2022-08-19T11:23:48;99706.34;;;30.84;39.76
71145;BME280;58812;47.698;17.726;2022-08-19T11:26:16;99716.91;;;30.77;39.86
71145;BME280;58812;47.698;17.726;2022-08-19T11:28:42;99707.97;;;30.85;39.79
71145;BME280;58812;47.698;17.726;2022-08-19T11:31:17;99714.22;;;30.72;39.27
71145;BME280;58812;47.698;17.726;2022-08-19T11:33:44;99704.19;;;30.76;39.25
71145;BME280;58812;47.698;17.726;2022-08-19T11:36:10;99709.38;;;30.82;39.03
71145;BME280;58812;47.698;17.726;2022-08-19T11:38:36;99712.28;;;30.96;38.40
71145;BME280;58812;47.698;17.726;2022-08-19T11:41:05;99710.97;;;30.59;38.98
71145;BME280;58812;47.698;17.726;2022-08-19T11:43:33;99718.87;;;30.71;39.36
71145;BME280;58812;47.698;17.726;2022-08-19T11:45:58;99713.09;;;30.97;38.69
71145;BME280;58812;47.698;17.726;2022-08-19T11:48:24;99719.31;;;31.07;39.15
71145;BME280;58812;47.698;17.726;2022-08-19T11:50:52;99721.78;;;31.09;38.91
71145;BME280;58812;47.698;17.726;2022-08-19T11:53:18;99720.16;;;31.08;38.88
71145;BME280;58812;47.698;17.726;2022-08-19T11:55:46;99725.94;;;30.53;40.03
71145;BME280;58812;47.698;17.726;2022-08-19T11:58:13;99731.38;;;30.69;40.07
71145;BME280;58812;47.698;17.726;2022-08-19T12:00:39;99734.78;;;30.26;40.31
71145;BME280;58812;47.698;17.726;2022-08-19T12:03:05;99734.25;;;30.24;40.55
71145;BME280;58812;47.698;17.726;2022-08-19T12:05:31;99733.47;;;30.19;40.29
71145;BME280;58812;47.698;17.726;2022-08-19T12:07:57;99747.81;;;30.21;40.44
71145;BME280;58812;47.698;17.726;2022-08-19T12:10:23;99746.06;;;29.96;40.63
71145;BME280;58812;47.698;17.726;2022-08-19T12:12:48;99750.28;;;29.83;40.55
71145;BME280;58812;47.698;17.726;2022-08-19T12:15:14;99759.13;;;29.80;40.89
71145;BME280;58812;47.698;17.726;2022-08-19T12:17:40;99771.84;;;29.76;41.29
71145;BME280;58812;47.698;17.726;2022-08-19T12:20:08;99772.63;;;29.82;40.59
71145;BME280;58812;47.698;17.726;2022-08-19T12:22:35;99784.81;;;29.75;40.56
71145;BME280;58812;47.698;17.726;2022-08-19T12:25:00;99799.75;;;29.69;40.71
71145;BME280;58812;47.698;17.726;2022-08-19T12:27:26;99790.94;;;29.67;41.53
71145;BME280;58812;47.698;17.726;2022-08-19T12:29:51;99799.62;;;29.35;42.83
71145;BME280;58812;47.698;17.726;2022-08-19T12:32:17;99809.34;;;28.92;43.89
71145;BME280;58812;47.698;17.726;2022-08-19T12:34:42;99797.50;;;28.81;44.67
71145;BME280;58812;47.698;17.726;2022-08-19T12:37:08;99788.72;;;28.94;44.81
71145;BME280;58812;47.698;17.726;2022-08-19T12:39:35;99794.16;;;29.10;44.55
71145;BME280;58812;47.698;17.726;2022-08-19T12:42:02;99822.88;;;28.78;45.98
71145;BME280;58812;47.698;17.726;2022-08-19T12:44:28;99805.78;;;28.86;45.40
71145;BME280;58812;47.698;17.726;2022-08-19T12:46:54;99801.84;;;29.23;44.65
71145;BME280;58812;47.698;17.726;2022-08-19T12:49:19;99809.63;;;29.06;44.37
71145;BME280;58812;47.698;17.726;2022-08-19T12:51:44;99832.16;;;29.23;44.30
71145;BME280;58812;47.698;17.726;2022-08-19T12:54:11;99835.91;;;29.63;44.00
71145;BME280;58812;47.698;17.726;2022-08-19T12:56:37;99837.00;;;29.72;43.71
71145;BME280;58812;47.698;17.726;2022-08-19T12:59:03;99818.34;;;29.38;44.52
71145;BME280;58812;47.698;17.726;2022-08-19T13:01:29;99823.19;;;29.72;43.14
71145;BME280;58812;47.698;17.726;2022-08-19T13:03:58;99830.41;;;29.63;43.98
71145;BME280;58812;47.698;17.726;2022-08-19T13:06:24;99841.47;;;29.52;44.18